Barry University, Florida
Current Conditions -  °F | °C
As of 5:53 PM on Thursday 27 Nov 2014 (Local Time) from KOPF Reporting Station
Clear Clear  
Wind Chill: 67°   Ceiling: Unl
Heat Index: 67°   Visibility: 10mi
Dew Point: 47°   Wind: 7mph
Humidity: 49%   Direction: 360°N
Pressure: 30.18"   Gusts: NA
Location:  25.8935°N, 80.1832°W
Report Text: KOPF 272253Z 36006KT 10SM CLR 19/08 A3018 RMK AO2 SLP219 T01940083
Loading
Personal Weather Stations






























Interactive Weather Map New forecast layout! Learn more

10-Day Weather Forecast

Advertisements
Track Severe Weather on mobile